createdAt,value
2023-02-04T00:00:06.928Z,45.92
2023-02-04T00:01:06.909Z,50.45
2023-02-04T00:02:06.920Z,47.29
2023-02-04T00:03:06.991Z,54.68
2023-02-04T00:04:06.870Z,50.13
2023-02-04T00:05:06.923Z,45.60
2023-02-04T00:06:06.950Z,48.28
2023-02-04T00:07:06.893Z,45.72
2023-02-04T00:08:06.843Z,46.34
2023-02-04T00:09:06.854Z,46.40
2023-02-04T00:10:06.816Z,49.87
2023-02-04T00:11:06.828Z,47.99
2023-02-04T00:12:06.836Z,50.37
2023-02-04T00:13:06.803Z,47.52
2023-02-04T00:14:06.781Z,49.16
2023-02-04T00:15:06.786Z,48.74
2023-02-04T00:16:06.839Z,46.24
2023-02-04T00:17:06.795Z,47.84
2023-02-04T00:18:06.758Z,48.35
2023-02-04T00:19:06.761Z,46.20
2023-02-04T00:20:06.748Z,46.70
2023-02-04T00:21:06.734Z,57.09
2023-02-04T00:22:06.746Z,51.29
2023-02-04T00:23:07.720Z,46.81
2023-02-04T00:24:06.718Z,47.87
2023-02-04T00:25:06.699Z,47.20
2023-02-04T00:26:06.711Z,48.42
2023-02-04T00:27:06.731Z,46.16
2023-02-04T00:28:06.714Z,46.28
2023-02-04T00:29:06.668Z,47.27
2023-02-04T00:30:06.816Z,44.43
2023-02-04T00:31:06.694Z,46.85
2023-02-04T00:32:06.753Z,44.58
2023-02-04T00:33:06.647Z,50.65
2023-02-04T00:34:06.649Z,53.70
2023-02-04T00:35:06.650Z,53.66
2023-02-04T00:36:06.629Z,52.21
2023-02-04T00:37:06.651Z,45.69
2023-02-04T00:38:06.619Z,48.78
2023-02-04T00:39:06.613Z,50.06
2023-02-04T00:40:06.609Z,47.85
2023-02-04T00:41:06.587Z,49.18
2023-02-04T00:42:06.624Z,46.32
2023-02-04T00:43:06.597Z,50.27
2023-02-04T00:44:06.572Z,46.62
2023-02-04T00:45:06.572Z,48.24
2023-02-04T00:46:06.604Z,48.97
2023-02-04T00:47:06.576Z,44.92
2023-02-04T00:48:06.545Z,49.76
2023-02-04T00:49:06.592Z,50.23
2023-02-04T00:50:06.561Z,48.12
2023-02-04T00:51:06.544Z,46.92
2023-02-04T00:52:06.559Z,49.75
2023-02-04T00:53:06.528Z,48.14
2023-02-04T00:54:06.494Z,47.12
2023-02-04T00:55:06.493Z,58.59
2023-02-04T00:56:06.489Z,60.72
2023-02-04T00:57:06.501Z,59.31
2023-02-04T00:58:06.511Z,59.18
2023-02-04T00:59:06.469Z,59.50
2023-02-04T01:00:06.521Z,60.04
2023-02-04T01:01:06.604Z,60.24
2023-02-04T01:02:06.495Z,60.10
2023-02-04T01:03:06.494Z,60.63
2023-02-04T01:04:07.444Z,59.94
2023-02-04T01:05:06.486Z,59.70
2023-02-04T01:06:06.420Z,60.01
2023-02-04T01:07:06.535Z,60.17
2023-02-04T01:08:06.431Z,60.28
2023-02-04T01:09:06.408Z,60.07
2023-02-04T01:10:06.434Z,60.69
2023-02-04T01:11:06.408Z,60.30
2023-02-04T01:12:06.411Z,60.28
2023-02-04T01:13:06.364Z,60.22
2023-02-04T01:14:06.364Z,60.63
2023-02-04T01:15:06.351Z,60.48
2023-02-04T01:16:06.418Z,60.64
2023-02-04T01:17:06.352Z,60.74
2023-02-04T01:18:06.385Z,60.58
2023-02-04T01:19:06.338Z,60.40
2023-02-04T01:20:06.340Z,60.43
2023-02-04T01:21:06.306Z,60.56
2023-02-04T01:22:06.293Z,60.60
2023-02-04T01:23:06.351Z,60.66
2023-02-04T01:24:06.273Z,61.27
2023-02-04T01:25:06.272Z,61.53
2023-02-04T01:26:06.251Z,60.67
2023-02-04T01:27:06.252Z,60.67
2023-02-04T01:28:06.443Z,60.07
2023-02-04T01:29:06.294Z,59.41
2023-02-04T01:30:06.232Z,59.25
2023-02-04T01:31:06.340Z,59.54
2023-02-04T01:32:06.272Z,59.92
2023-02-04T01:33:06.253Z,60.28
2023-02-04T01:34:06.206Z,60.28
2023-02-04T01:35:06.235Z,61.78
2023-02-04T01:36:06.246Z,65.28
2023-02-04T01:37:06.188Z,59.96
2023-02-04T01:38:06.219Z,61.13
2023-02-04T01:39:06.146Z,59.89
2023-02-04T01:40:07.261Z,59.92
2023-02-04T01:41:06.188Z,59.90
2023-02-04T01:42:06.181Z,60.16
2023-02-04T01:43:06.243Z,60.42
2023-02-04T01:44:06.159Z,60.49
2023-02-04T01:45:06.163Z,61.34
2023-02-04T01:46:06.256Z,62.72
2023-02-04T01:47:06.123Z,60.58
2023-02-04T01:48:06.123Z,62.14
2023-02-04T01:49:06.388Z,61.11
2023-02-04T01:50:06.252Z,60.20
2023-02-04T01:51:06.088Z,59.85
2023-02-04T01:52:06.092Z,59.41
2023-02-04T01:53:06.169Z,59.32
2023-02-04T01:54:06.061Z,59.92
2023-02-04T01:55:06.092Z,59.45
2023-02-04T01:56:06.079Z,58.92
2023-02-04T01:57:06.030Z,58.92
2023-02-04T01:58:06.062Z,59.28
2023-02-04T01:59:06.039Z,58.64
2023-02-04T02:00:06.203Z,58.61
2023-02-04T02:01:06.047Z,58.41
2023-02-04T02:02:06.462Z,58.34
2023-02-04T02:03:06.082Z,58.12
2023-02-04T02:04:05.985Z,58.12
2023-02-04T02:05:06.011Z,58.90
2023-02-04T02:06:06.003Z,58.08
2023-02-04T02:07:05.994Z,58.11
2023-02-04T02:08:06.037Z,58.57
2023-02-04T02:09:05.986Z,57.68
2023-02-04T02:10:05.931Z,57.30
2023-02-04T02:11:05.988Z,58.19
2023-02-04T02:12:05.924Z,58.03
2023-02-04T02:13:05.972Z,57.91
2023-02-04T02:14:05.949Z,58.48
2023-02-04T02:15:05.932Z,58.68
2023-02-04T02:16:05.939Z,57.80
2023-02-04T02:17:05.959Z,57.81
2023-02-04T02:18:05.941Z,58.22
2023-02-04T02:19:05.903Z,57.58
2023-02-04T02:20:05.879Z,57.92
2023-02-04T02:21:05.882Z,57.48
2023-02-04T02:22:05.851Z,57.92
2023-02-04T02:23:05.912Z,57.69
2023-02-04T02:24:06.845Z,57.77
2023-02-04T02:25:06.221Z,58.61
2023-02-04T02:26:05.830Z,58.29
2023-02-04T02:27:05.929Z,58.33
2023-02-04T02:28:05.943Z,57.96
2023-02-04T02:29:05.797Z,57.94
2023-02-04T02:30:05.819Z,58.03
2023-02-04T02:31:05.879Z,58.29
2023-02-04T02:32:05.788Z,57.93
2023-02-04T02:33:05.828Z,57.86
2023-02-04T02:34:05.780Z,58.63
2023-02-04T02:35:05.751Z,57.48
2023-02-04T02:36:05.776Z,57.73
2023-02-04T02:37:05.735Z,57.35
2023-02-04T02:38:05.874Z,57.80
2023-02-04T02:39:05.740Z,57.42
2023-02-04T02:40:05.785Z,57.73
2023-02-04T02:41:05.713Z,57.44
2023-02-04T02:42:05.730Z,57.27
2023-02-04T02:43:05.750Z,57.58
2023-02-04T02:44:05.689Z,57.62
2023-02-04T02:45:05.675Z,57.55
2023-02-04T02:46:05.791Z,57.78
2023-02-04T02:47:05.662Z,57.36
2023-02-04T02:48:05.693Z,47.63
2023-02-04T02:49:05.656Z,44.01
2023-02-04T02:50:05.681Z,47.92
2023-02-04T02:51:05.687Z,46.85
2023-02-04T02:52:05.724Z,47.31
2023-02-04T02:53:05.664Z,43.76
2023-02-04T02:54:05.598Z,47.31
2023-02-04T02:55:05.647Z,45.14
2023-02-04T02:56:05.875Z,43.22
2023-02-04T02:57:05.636Z,43.12
2023-02-04T02:58:05.614Z,44.41
2023-02-04T02:59:05.565Z,42.13
2023-02-04T03:00:05.724Z,42.86
2023-02-04T03:01:05.911Z,44.13
2023-02-04T03:02:05.712Z,41.99
2023-02-04T03:03:05.596Z,41.09
2023-02-04T03:04:05.557Z,41.06
2023-02-04T03:05:05.556Z,47.47
2023-02-04T03:06:05.531Z,43.04
2023-02-04T03:07:05.603Z,42.27
2023-02-04T03:08:05.665Z,41.62
2023-02-04T03:09:05.494Z,43.10
2023-02-04T03:10:05.504Z,44.73
2023-02-04T03:11:05.492Z,43.28
2023-02-04T03:12:05.463Z,47.02
2023-02-04T03:13:05.560Z,47.42
2023-02-04T03:14:05.471Z,45.80
2023-02-04T03:15:05.440Z,43.49
2023-02-04T03:16:05.624Z,44.20
2023-02-04T03:17:05.435Z,47.07
2023-02-04T03:18:05.544Z,54.74
2023-02-04T03:19:05.490Z,48.39
2023-02-04T03:20:05.476Z,49.86
2023-02-04T03:21:05.477Z,45.07
2023-02-04T03:22:05.474Z,62.41
2023-02-04T03:23:05.420Z,44.03
2023-02-04T03:24:05.413Z,44.49
2023-02-04T03:25:05.392Z,43.35
2023-02-04T03:26:05.430Z,46.40
2023-02-04T03:27:06.398Z,46.62
2023-02-04T03:28:05.487Z,48.13
2023-02-04T03:29:05.355Z,47.99
2023-02-04T03:30:05.373Z,53.70
2023-02-04T03:31:05.395Z,50.44
2023-02-04T03:32:05.331Z,44.97
2023-02-04T03:33:05.370Z,44.80
2023-02-04T03:34:05.371Z,51.99
2023-02-04T03:35:05.337Z,45.42
2023-02-04T03:36:05.324Z,45.32
2023-02-04T03:37:05.276Z,45.53
2023-02-04T03:38:05.320Z,55.39
2023-02-04T03:39:05.273Z,50.23
2023-02-04T03:40:05.317Z,45.84
2023-02-04T03:41:05.249Z,47.29
2023-02-04T03:42:05.302Z,43.68
2023-02-04T03:43:05.260Z,48.02
2023-02-04T03:44:05.319Z,47.40
2023-02-04T03:45:05.247Z,62.01
2023-02-04T03:46:05.330Z,50.24
2023-02-04T03:47:05.250Z,45.28
2023-02-04T03:48:05.221Z,51.87
2023-02-04T03:49:05.227Z,50.98
2023-02-04T03:50:05.225Z,46.88
2023-02-04T03:51:05.227Z,50.28
2023-02-04T03:52:05.393Z,52.80
2023-02-04T03:53:05.189Z,50.99
2023-02-04T03:54:05.202Z,47.79
2023-02-04T03:55:05.148Z,49.19
2023-02-04T03:56:05.157Z,46.38
2023-02-04T03:57:05.141Z,48.36
2023-02-04T03:58:05.162Z,50.93
2023-02-04T03:59:05.141Z,50.79
2023-02-04T04:00:05.133Z,51.71
2023-02-04T04:01:05.142Z,50.86
2023-02-04T04:02:05.116Z,50.23
2023-02-04T04:03:05.185Z,47.58
2023-02-04T04:04:05.249Z,50.69
2023-02-04T04:05:05.095Z,47.24
2023-02-04T04:06:05.061Z,54.57
2023-02-04T04:07:05.085Z,51.67
2023-02-04T04:08:05.045Z,51.23
2023-02-04T04:09:05.091Z,55.00
2023-02-04T04:10:05.030Z,48.35
2023-02-04T04:11:05.059Z,46.13
2023-02-04T04:12:05.048Z,49.51
2023-02-04T04:13:05.044Z,51.47
2023-02-04T04:14:05.051Z,52.90
2023-02-04T04:15:04.990Z,51.03
2023-02-04T04:16:05.141Z,49.74
2023-02-04T04:17:04.990Z,47.32
2023-02-04T04:18:05.000Z,45.30
2023-02-04T04:19:05.056Z,48.66
2023-02-04T04:20:04.995Z,50.67
2023-02-04T04:21:04.958Z,48.73
2023-02-04T04:22:04.957Z,47.65
2023-02-04T04:23:05.007Z,51.71
2023-02-04T04:24:04.988Z,47.92
2023-02-04T04:25:04.939Z,50.50
2023-02-04T04:26:04.969Z,51.07
2023-02-04T04:27:04.911Z,48.74
2023-02-04T04:28:04.941Z,62.71
2023-02-04T04:29:05.924Z,54.05
2023-02-04T04:30:04.968Z,51.09
2023-02-04T04:31:05.007Z,49.96
2023-02-04T04:32:04.922Z,60.25
2023-02-04T04:33:04.882Z,50.68
2023-02-04T04:34:04.952Z,50.27
2023-02-04T04:35:04.852Z,49.06
2023-02-04T04:36:04.852Z,46.93
2023-02-04T04:37:04.849Z,55.59
2023-02-04T04:38:04.822Z,55.00
2023-02-04T04:39:04.891Z,53.51
2023-02-04T04:40:05.869Z,58.82
2023-02-04T04:41:04.836Z,48.47
2023-02-04T04:42:04.794Z,48.75
2023-02-04T04:43:04.794Z,54.58
2023-02-04T04:44:04.812Z,58.20
2023-02-04T04:45:04.804Z,57.27
2023-02-04T04:46:04.782Z,58.87
2023-02-04T04:47:04.755Z,59.68
2023-02-04T04:48:04.769Z,59.89
2023-02-04T04:49:04.792Z,60.10
2023-02-04T04:50:04.788Z,60.03
2023-02-04T04:51:04.731Z,59.70
2023-02-04T04:52:04.726Z,60.20
2023-02-04T04:53:04.718Z,59.34
2023-02-04T04:54:04.793Z,59.69
2023-02-04T04:55:04.722Z,59.63
2023-02-04T04:56:04.854Z,59.76
2023-02-04T04:57:04.730Z,58.94
2023-02-04T04:58:04.708Z,59.91
2023-02-04T04:59:04.792Z,59.85
2023-02-04T05:00:04.708Z,59.80
2023-02-04T05:01:04.703Z,59.43
2023-02-04T05:02:04.638Z,59.67
2023-02-04T05:03:04.651Z,59.87
2023-02-04T05:04:04.723Z,59.35
2023-02-04T05:05:04.785Z,59.75
2023-02-04T05:06:04.630Z,56.00
2023-02-04T05:07:05.615Z,59.89
2023-02-04T05:08:04.588Z,52.14
2023-02-04T05:09:04.847Z,51.17
2023-02-04T05:10:04.657Z,49.27
2023-02-04T05:11:04.647Z,54.09
2023-02-04T05:12:04.652Z,52.72
2023-02-04T05:13:04.619Z,54.15
2023-02-04T05:14:04.709Z,51.16
2023-02-04T05:15:04.579Z,48.06
2023-02-04T05:16:04.595Z,57.28
2023-02-04T05:17:04.657Z,54.98
2023-02-04T05:18:04.596Z,51.42
2023-02-04T05:19:04.590Z,53.54
2023-02-04T05:20:04.517Z,45.43
2023-02-04T05:21:04.584Z,55.01
2023-02-04T05:22:04.584Z,59.81
2023-02-04T05:23:05.732Z,51.49
2023-02-04T05:24:05.507Z,55.23
2023-02-04T05:25:04.564Z,53.39
2023-02-04T05:26:04.468Z,51.90
2023-02-04T05:27:04.468Z,59.65
2023-02-04T05:28:04.601Z,48.04
2023-02-04T05:29:04.488Z,52.41
2023-02-04T05:30:04.519Z,54.26
2023-02-04T05:31:04.565Z,58.96
2023-02-04T05:32:04.545Z,59.70
2023-02-04T05:33:04.410Z,60.16
2023-02-04T05:34:04.466Z,60.11
2023-02-04T05:35:05.618Z,59.97
2023-02-04T05:36:05.401Z,60.38
2023-02-04T05:37:04.471Z,60.05
2023-02-04T05:38:04.404Z,61.94
2023-02-04T05:39:04.398Z,62.48
2023-02-04T05:40:04.354Z,63.60
2023-02-04T05:41:04.363Z,61.13
2023-02-04T05:42:04.376Z,61.15
2023-02-04T05:43:04.384Z,61.28
2023-02-04T05:44:04.409Z,60.89
2023-02-04T05:45:04.368Z,64.96
2023-02-04T05:46:04.460Z,60.60
2023-02-04T05:47:04.361Z,60.39
2023-02-04T05:48:04.370Z,62.73
2023-02-04T05:49:04.431Z,61.56
2023-02-04T05:50:04.381Z,61.52
2023-02-04T05:51:04.323Z,63.89
2023-02-04T05:52:04.335Z,61.64
2023-02-04T05:53:04.392Z,61.64
2023-02-04T05:54:04.397Z,64.74
2023-02-04T05:55:04.401Z,62.11
2023-02-04T05:56:04.317Z,63.77
2023-02-04T05:57:04.265Z,60.74
2023-02-04T05:58:04.268Z,60.57
2023-02-04T05:59:04.276Z,60.81
2023-02-04T06:00:04.259Z,62.54
2023-02-04T06:01:04.401Z,60.56
2023-02-04T06:02:04.252Z,60.15
2023-02-04T06:03:04.226Z,59.86
2023-02-04T06:04:04.285Z,54.87
2023-02-04T06:05:04.169Z,54.66
2023-02-04T06:06:04.384Z,57.01
2023-02-04T06:07:04.233Z,53.13
2023-02-04T06:08:04.178Z,54.21
2023-02-04T06:09:04.159Z,52.72
2023-02-04T06:10:04.262Z,54.71
2023-02-04T06:11:04.147Z,58.93
2023-02-04T06:12:04.105Z,57.95
2023-02-04T06:13:04.141Z,60.03
2023-02-04T06:14:04.204Z,55.69
2023-02-04T06:15:04.145Z,58.60
2023-02-04T06:16:04.087Z,56.49
2023-02-04T06:17:04.095Z,58.98
2023-02-04T06:18:04.092Z,56.53
2023-02-04T06:19:04.099Z,54.46
2023-02-04T06:20:04.115Z,56.81
2023-02-04T06:21:04.111Z,60.37
2023-02-04T06:22:04.106Z,59.94
2023-02-04T06:23:04.030Z,55.94
2023-02-04T06:24:05.439Z,53.41
2023-02-04T06:25:05.066Z,56.23
2023-02-04T06:26:04.058Z,59.01
2023-02-04T06:27:03.997Z,62.15
2023-02-04T06:28:04.181Z,59.31
2023-02-04T06:29:04.033Z,58.55
2023-02-04T06:30:04.018Z,58.88
2023-02-04T06:31:04.106Z,59.37
2023-02-04T06:32:04.120Z,56.53
2023-02-04T06:33:03.967Z,53.64
2023-02-04T06:34:03.935Z,56.46
2023-02-04T06:35:04.098Z,52.57
2023-02-04T06:36:03.954Z,52.10
2023-02-04T06:37:03.946Z,51.46
2023-02-04T06:38:03.910Z,66.29
2023-02-04T06:39:03.900Z,61.80
2023-02-04T06:40:03.922Z,60.57
2023-02-04T06:41:03.889Z,61.62
2023-02-04T06:42:03.899Z,65.88
2023-02-04T06:43:04.622Z,61.45
2023-02-04T06:44:04.930Z,61.08
2023-02-04T06:45:03.921Z,60.93
2023-02-04T06:46:04.007Z,61.66
2023-02-04T06:47:03.921Z,61.28
2023-02-04T06:48:04.005Z,62.48
2023-02-04T06:49:03.850Z,61.85
2023-02-04T06:50:03.910Z,61.55
2023-02-04T06:51:03.848Z,61.60
2023-02-04T06:52:03.821Z,61.48
2023-02-04T06:53:03.824Z,61.77
2023-02-04T06:54:03.857Z,61.36
2023-02-04T06:55:03.907Z,61.61
2023-02-04T06:56:03.877Z,64.55
2023-02-04T06:57:03.798Z,61.28
2023-02-04T06:58:03.781Z,61.20
2023-02-04T06:59:03.826Z,61.51
2023-02-04T07:00:03.822Z,61.31
2023-02-04T07:01:03.812Z,65.44
2023-02-04T07:02:03.728Z,61.42
2023-02-04T07:03:03.719Z,62.02
2023-02-04T07:04:03.740Z,61.08
2023-02-04T07:05:03.742Z,61.26
2023-02-04T07:06:03.700Z,60.81
2023-02-04T07:07:03.704Z,61.18
2023-02-04T07:08:03.688Z,62.66
2023-02-04T07:09:03.688Z,59.44
2023-02-04T07:10:03.717Z,60.34
2023-02-04T07:11:03.678Z,60.58
2023-02-04T07:12:03.651Z,62.35
2023-02-04T07:13:03.648Z,60.17
2023-02-04T07:14:03.646Z,60.66
2023-02-04T07:15:03.663Z,61.09
2023-02-04T07:16:03.770Z,59.95
2023-02-04T07:17:03.620Z,60.42
2023-02-04T07:18:03.605Z,59.94
2023-02-04T07:19:03.600Z,60.21
2023-02-04T07:20:03.618Z,60.61
2023-02-04T07:21:03.597Z,61.38
2023-02-04T07:22:03.608Z,62.05
2023-02-04T07:23:03.576Z,61.36
2023-02-04T07:24:03.565Z,61.76
2023-02-04T07:25:03.635Z,61.55
2023-02-04T07:26:03.562Z,61.52
2023-02-04T07:27:03.575Z,61.43
2023-02-04T07:28:03.548Z,61.57
2023-02-04T07:29:03.543Z,62.18
2023-02-04T07:30:03.549Z,61.62
2023-02-04T07:31:03.719Z,63.30
2023-02-04T07:32:03.609Z,61.31
2023-02-04T07:33:03.516Z,62.13
2023-02-04T07:34:03.490Z,62.88
2023-02-04T07:35:03.529Z,63.15
2023-02-04T07:36:03.489Z,61.32
2023-02-04T07:37:03.473Z,61.97
2023-02-04T07:38:03.457Z,61.32
2023-02-04T07:39:03.444Z,60.92
2023-02-04T07:40:03.474Z,61.54
2023-02-04T07:41:03.429Z,60.73
2023-02-04T07:42:03.411Z,63.49
2023-02-04T07:43:03.413Z,60.21
2023-02-04T07:44:03.416Z,60.18
2023-02-04T07:45:03.415Z,60.45
2023-02-04T07:46:03.424Z,59.95
2023-02-04T07:47:03.373Z,59.40
2023-02-04T07:48:03.373Z,60.25
2023-02-04T07:49:03.376Z,59.67
2023-02-04T07:50:03.387Z,60.31
2023-02-04T07:51:03.358Z,60.35
2023-02-04T07:52:03.342Z,60.55
2023-02-04T07:53:03.325Z,54.83
2023-02-04T07:54:03.365Z,53.98
2023-02-04T07:55:03.339Z,54.16
2023-02-04T07:56:03.310Z,51.48
2023-02-04T07:57:03.321Z,53.86
2023-02-04T07:58:03.294Z,52.39
2023-02-04T07:59:03.287Z,55.57
2023-02-04T08:00:03.304Z,59.70
2023-02-04T08:01:03.288Z,56.63
2023-02-04T08:02:03.270Z,57.60
2023-02-04T08:03:03.392Z,55.19
2023-02-04T08:04:03.250Z,55.06
2023-02-04T08:05:03.274Z,54.09
2023-02-04T08:06:03.235Z,53.33
2023-02-04T08:07:03.233Z,55.48
2023-02-04T08:08:03.219Z,55.83
2023-02-04T08:09:03.205Z,56.73
2023-02-04T08:10:03.242Z,58.81
2023-02-04T08:11:03.188Z,57.24
2023-02-04T08:12:03.193Z,56.51
2023-02-04T08:13:03.179Z,52.28
2023-02-04T08:14:03.181Z,55.15
2023-02-04T08:15:03.194Z,56.35
2023-02-04T08:16:03.193Z,60.14
2023-02-04T08:17:03.145Z,53.28
2023-02-04T08:18:03.140Z,57.24
2023-02-04T08:19:03.137Z,57.19
2023-02-04T08:20:03.191Z,57.76
2023-02-04T08:21:03.239Z,55.52
2023-02-04T08:22:03.125Z,56.51
2023-02-04T08:23:03.121Z,56.56
2023-02-04T08:24:03.112Z,52.90
2023-02-04T08:25:03.222Z,57.49
2023-02-04T08:26:03.172Z,56.21
2023-02-04T08:27:03.077Z,62.77
2023-02-04T08:28:03.144Z,57.01
2023-02-04T08:29:03.053Z,55.09
2023-02-04T08:30:03.164Z,62.40
2023-02-04T08:31:03.175Z,59.41
2023-02-04T08:32:03.129Z,58.48
2023-02-04T08:33:03.060Z,61.26
2023-02-04T08:34:03.071Z,57.14
2023-02-04T08:35:03.924Z,55.50
2023-02-04T08:36:03.037Z,53.35
2023-02-04T08:37:03.051Z,56.52
2023-02-04T08:38:03.037Z,60.43
2023-02-04T08:39:03.015Z,61.34
2023-02-04T08:40:03.075Z,61.98
2023-02-04T08:41:02.966Z,62.20
2023-02-04T08:42:02.992Z,61.18
2023-02-04T08:43:03.049Z,64.46
2023-02-04T08:44:03.049Z,61.18
2023-02-04T08:45:03.253Z,61.06
2023-02-04T08:46:03.043Z,61.99
2023-02-04T08:47:02.970Z,61.12
2023-02-04T08:48:02.964Z,60.68
2023-02-04T08:49:03.075Z,62.71
2023-02-04T08:50:03.027Z,61.13
2023-02-04T08:51:02.930Z,61.41
2023-02-04T08:52:02.931Z,60.59
2023-02-04T08:53:02.930Z,60.94
2023-02-04T08:54:02.941Z,60.40
2023-02-04T08:55:02.921Z,60.89
2023-02-04T08:56:02.884Z,62.28
2023-02-04T08:57:02.936Z,61.30
2023-02-04T08:58:02.932Z,60.43
2023-02-04T08:59:02.954Z,60.30
2023-02-04T09:00:02.880Z,60.50
2023-02-04T09:01:02.974Z,60.81
2023-02-04T09:02:02.903Z,60.42
2023-02-04T09:03:02.923Z,62.45
2023-02-04T09:04:02.838Z,62.74
2023-02-04T09:05:02.836Z,61.45
2023-02-04T09:06:02.873Z,60.88
2023-02-04T09:07:02.809Z,60.55
2023-02-04T09:08:02.803Z,60.76
2023-02-04T09:09:02.867Z,60.31
2023-02-04T09:10:02.831Z,60.37
2023-02-04T09:11:02.840Z,60.85
2023-02-04T09:12:02.784Z,60.54
2023-02-04T09:13:02.779Z,60.50
2023-02-04T09:14:02.831Z,60.50
2023-02-04T09:15:02.782Z,61.08
2023-02-04T09:16:03.138Z,60.81
2023-02-04T09:17:02.755Z,60.40
2023-02-04T09:18:02.757Z,63.64
2023-02-04T09:19:02.822Z,60.85
2023-02-04T09:20:02.726Z,62.02
2023-02-04T09:21:02.761Z,59.70
2023-02-04T09:22:02.755Z,60.68
2023-02-04T09:23:02.761Z,61.58
2023-02-04T09:24:02.710Z,60.66
2023-02-04T09:25:02.704Z,63.30
2023-02-04T09:26:02.750Z,62.34
2023-02-04T09:27:02.837Z,62.06
2023-02-04T09:28:02.745Z,61.84
2023-02-04T09:29:02.653Z,62.11
2023-02-04T09:30:02.650Z,65.27
2023-02-04T09:31:04.532Z,60.89
2023-02-04T09:32:03.714Z,61.54
2023-02-04T09:33:02.617Z,61.68
2023-02-04T09:34:02.687Z,61.48
2023-02-04T09:35:02.736Z,61.80
2023-02-04T09:36:02.765Z,61.01
2023-02-04T09:37:02.653Z,61.64
2023-02-04T09:38:02.608Z,61.98
2023-02-04T09:39:02.684Z,61.51
2023-02-04T09:40:02.578Z,64.15
2023-02-04T09:41:02.733Z,61.32
2023-02-04T09:42:02.692Z,61.24
2023-02-04T09:43:02.564Z,61.77
2023-02-04T09:44:02.619Z,62.79
2023-02-04T09:45:02.591Z,63.73
2023-02-04T09:46:02.655Z,63.79
2023-02-04T09:47:03.602Z,61.46
2023-02-04T09:48:02.519Z,61.05
2023-02-04T09:49:02.577Z,61.15
2023-02-04T09:50:02.545Z,60.95
2023-02-04T09:51:02.559Z,60.87
2023-02-04T09:52:02.628Z,60.37
2023-02-04T09:53:02.556Z,60.59
2023-02-04T09:54:02.559Z,60.92
2023-02-04T09:55:02.485Z,60.78
2023-02-04T09:56:02.524Z,63.57
2023-02-04T09:57:02.505Z,61.13
2023-02-04T09:58:02.434Z,60.84
2023-02-04T09:59:02.436Z,61.30
2023-02-04T10:00:02.562Z,61.38
2023-02-04T10:01:02.565Z,63.10
2023-02-04T10:02:02.470Z,61.53
2023-02-04T10:03:02.371Z,60.37
2023-02-04T10:04:02.545Z,61.84
2023-02-04T10:05:02.373Z,60.97
2023-02-04T10:06:02.449Z,64.71
2023-02-04T10:07:02.390Z,62.12
2023-02-04T10:08:02.369Z,61.04
2023-02-04T10:09:02.385Z,61.18
2023-02-04T10:10:02.332Z,61.06
2023-02-04T10:11:02.370Z,61.43
2023-02-04T10:12:02.355Z,60.79
2023-02-04T10:13:02.324Z,60.89
2023-02-04T10:14:02.406Z,62.19
2023-02-04T10:15:02.314Z,61.58
2023-02-04T10:16:02.406Z,60.34
2023-02-04T10:17:02.483Z,60.92
2023-02-04T10:18:02.269Z,60.99
2023-02-04T10:19:02.389Z,63.68
2023-02-04T10:20:02.284Z,60.20
2023-02-04T10:21:02.364Z,60.48
2023-02-04T10:22:02.368Z,60.30
2023-02-04T10:23:02.360Z,60.51
2023-02-04T10:24:02.293Z,63.83
2023-02-04T10:25:02.384Z,60.58
2023-02-04T10:26:02.339Z,61.87
2023-02-04T10:27:02.311Z,60.98
2023-02-04T10:28:02.450Z,61.39
2023-02-04T10:29:02.373Z,60.98
2023-02-04T10:30:02.185Z,60.90
2023-02-04T10:31:02.484Z,61.39
2023-02-04T10:32:02.194Z,60.82
2023-02-04T10:33:02.192Z,61.03
2023-02-04T10:34:02.260Z,61.14
2023-02-04T10:35:02.257Z,61.43
2023-02-04T10:36:02.179Z,60.80
2023-02-04T10:37:02.179Z,61.12
2023-02-04T10:38:02.184Z,61.39
2023-02-04T10:39:02.155Z,61.37
2023-02-04T10:40:02.244Z,60.76
2023-02-04T10:41:02.458Z,61.71
2023-02-04T10:42:02.106Z,61.65
2023-02-04T10:43:02.181Z,61.14
2023-02-04T10:44:02.230Z,60.70
2023-02-04T10:45:02.144Z,60.40
2023-02-04T10:46:02.218Z,60.39
2023-02-04T10:47:02.116Z,60.15
2023-02-04T10:48:02.062Z,59.23
2023-02-04T10:49:02.125Z,60.26
2023-02-04T10:50:02.031Z,59.83
2023-02-04T10:51:02.073Z,60.07
2023-02-04T10:52:02.087Z,61.06
2023-02-04T10:53:02.079Z,60.69
2023-02-04T10:54:02.030Z,60.30
2023-02-04T10:55:02.049Z,60.40
2023-02-04T10:56:02.197Z,60.20
2023-02-04T10:57:03.045Z,60.28
2023-02-04T10:58:02.035Z,60.82
2023-02-04T10:59:02.042Z,60.13
2023-02-04T11:00:02.010Z,60.66
2023-02-04T11:01:02.018Z,60.93
2023-02-04T11:02:02.054Z,59.90
2023-02-04T11:03:02.024Z,60.25
2023-02-04T11:04:01.992Z,60.76
2023-02-04T11:05:02.040Z,59.54
2023-02-04T11:06:01.932Z,60.77
2023-02-04T11:07:01.962Z,59.49
2023-02-04T11:08:01.924Z,60.77
2023-02-04T11:09:01.894Z,60.85
2023-02-04T11:10:01.912Z,60.59
2023-02-04T11:11:01.922Z,59.62
2023-02-04T11:12:01.931Z,60.61
2023-02-04T11:13:01.966Z,60.47
2023-02-04T11:14:01.910Z,59.75
2023-02-04T11:15:01.890Z,61.51
2023-02-04T11:16:01.938Z,60.83
2023-02-04T11:17:01.916Z,60.40
2023-02-04T11:18:01.825Z,60.06
2023-02-04T11:19:01.889Z,61.10
2023-02-04T11:20:01.869Z,60.44
2023-02-04T11:21:01.843Z,60.45
2023-02-04T11:22:01.949Z,61.18
2023-02-04T11:23:01.810Z,61.03
2023-02-04T11:24:01.779Z,60.71
2023-02-04T11:25:01.862Z,60.40
2023-02-04T11:26:01.808Z,61.16
2023-02-04T11:27:01.769Z,60.49
2023-02-04T11:28:01.852Z,60.62
2023-02-04T11:29:01.794Z,60.68
2023-02-04T11:30:01.768Z,61.58
2023-02-04T11:31:01.957Z,60.23
2023-02-04T11:32:01.925Z,60.20
2023-02-04T11:33:01.729Z,61.18
2023-02-04T11:34:01.735Z,60.19
2023-02-04T11:35:01.735Z,59.28
2023-02-04T11:36:01.697Z,60.69
2023-02-04T11:37:01.723Z,60.23
2023-02-04T11:38:01.706Z,61.17
2023-02-04T11:39:01.655Z,59.71
2023-02-04T11:40:01.660Z,59.66
2023-02-04T11:41:01.771Z,62.45
2023-02-04T11:42:01.803Z,62.71
2023-02-04T11:43:01.685Z,59.53
2023-02-04T11:44:01.641Z,61.06
2023-02-04T11:45:01.609Z,63.33
2023-02-04T11:46:01.644Z,59.89
2023-02-04T11:47:01.668Z,60.44
2023-02-04T11:48:01.581Z,60.09
2023-02-04T11:49:01.598Z,62.10
2023-02-04T11:50:01.581Z,60.16
2023-02-04T11:51:01.586Z,59.85
2023-02-04T11:52:01.593Z,62.04
2023-02-04T11:53:01.613Z,59.76
2023-02-04T11:54:01.612Z,61.29
2023-02-04T11:55:01.630Z,62.20
2023-02-04T11:56:01.590Z,59.97
2023-02-04T11:57:01.586Z,65.96
2023-02-04T11:58:01.584Z,59.83
2023-02-04T11:59:01.529Z,60.09
2023-02-04T12:00:01.654Z,60.46
2023-02-04T12:01:01.554Z,59.61
2023-02-04T12:02:01.571Z,59.53
2023-02-04T12:03:01.511Z,59.58
2023-02-04T12:04:01.621Z,58.97
2023-02-04T12:05:01.497Z,59.90
2023-02-04T12:06:01.449Z,61.20
2023-02-04T12:07:01.585Z,60.46
2023-02-04T12:08:01.434Z,59.80
2023-02-04T12:09:01.410Z,59.01
2023-02-04T12:10:01.428Z,59.56
2023-02-04T12:11:01.421Z,59.33
2023-02-04T12:12:01.395Z,58.64
2023-02-04T12:13:01.436Z,60.73
2023-02-04T12:14:01.397Z,59.58
2023-02-04T12:15:01.401Z,59.67
2023-02-04T12:16:01.426Z,65.00
2023-02-04T12:17:01.390Z,59.54
2023-02-04T12:18:01.383Z,59.88
2023-02-04T12:19:01.350Z,59.50
2023-02-04T12:20:01.333Z,59.42
2023-02-04T12:21:01.329Z,59.60
2023-02-04T12:22:01.344Z,59.06
2023-02-04T12:23:01.358Z,59.82
2023-02-04T12:24:01.323Z,60.93
2023-02-04T12:25:01.303Z,61.56
2023-02-04T12:26:01.401Z,60.03
2023-02-04T12:27:01.282Z,60.59
2023-02-04T12:28:01.372Z,59.19
2023-02-04T12:29:01.267Z,58.94
2023-02-04T12:30:01.264Z,60.02
2023-02-04T12:31:01.390Z,62.57
2023-02-04T12:32:01.321Z,59.37
2023-02-04T12:33:01.267Z,59.84
2023-02-04T12:34:01.221Z,59.70
2023-02-04T12:35:01.225Z,58.69
2023-02-04T12:36:01.205Z,59.47
2023-02-04T12:37:01.200Z,59.66
2023-02-04T12:38:01.219Z,61.54
2023-02-04T12:39:01.182Z,62.30
2023-02-04T12:40:01.167Z,59.18
2023-02-04T12:41:01.193Z,58.38
2023-02-04T12:42:01.190Z,58.46
2023-02-04T12:43:01.179Z,59.54
2023-02-04T12:44:01.161Z,61.30
2023-02-04T12:45:01.163Z,58.77
2023-02-04T12:46:01.137Z,59.20
2023-02-04T12:47:01.127Z,59.54
2023-02-04T12:48:01.209Z,58.85
2023-02-04T12:49:01.135Z,59.21
2023-02-04T12:50:01.095Z,59.97
2023-02-04T12:51:01.165Z,58.47
2023-02-04T12:52:01.135Z,60.13